EHLW

Leeuwarden Air Base Airport

Leeuwarden, The Netherlands
METAR EHLW 232025Z AUTO 30016KT 9999 FEW012/// BKN015/// BKN019/// 14/12 Q1019 WHT
Observed Flight Rules
Oct-23 @ 20:25 UTC (7 minutes ago) Marginal Visual Flight Rules
Wind Visibility Clouds
300° at 16 knots 10,000+ meters
  • Few at 1,200' AGL
  • Broken at 1,500' AGL
  • Broken at 1,900' AGL
Temperatures Readings
Current 14°C / 57°F
Dewpoint 12°C / 54°F
Humidity 88%
Altimeter 30.09" Hg
Pressure 1019 hPa
Elevation 2
METAR EHLW 232025Z AUTO 30016KT 9999 FEW012/// BKN015/// BKN019/// 14/12 Q1019 WHT
Observed Flight Rules
Oct-23 @ 20:25 UTC
(7 minutes ago)
MVFR
Wind Visibility
300° at 16 knots 10,000+ meters
Clouds
  • Few at 1,200' AGL
  • Broken at 1,500' AGL
  • Broken at 1,900' AGL
Temperature Dewpoint
14°C / 57°F 12°C / 54°F
Humidity Altimeter Pressure
88% 30.09" Hg 1019 hPa